sensor_id;sensor_type;location;lat;lon;timestamp;P1;durP1;ratioP1;P2;durP2;ratioP2
34196;SDS011;36594;45.192;5.722;2023-02-28T00:02:14;0.70;;;0.70;;
34196;SDS011;36594;45.192;5.722;2023-02-28T00:05:04;0.60;;;0.60;;
34196;SDS011;36594;45.192;5.722;2023-02-28T00:07:55;0.50;;;0.50;;
34196;SDS011;36594;45.192;5.722;2023-02-28T00:10:44;0.57;;;0.57;;
34196;SDS011;36594;45.192;5.722;2023-02-28T00:13:33;0.55;;;0.55;;
34196;SDS011;36594;45.192;5.722;2023-02-28T00:16:25;0.60;;;0.60;;
34196;SDS011;36594;45.192;5.722;2023-02-28T00:19:13;1.20;;;0.70;;
34196;SDS011;36594;45.192;5.722;2023-02-28T00:22:01;0.75;;;0.70;;
34196;SDS011;36594;45.192;5.722;2023-02-28T00:24:49;0.60;;;0.60;;
34196;SDS011;36594;45.192;5.722;2023-02-28T00:27:37;0.77;;;0.77;;
34196;SDS011;36594;45.192;5.722;2023-02-28T00:30:27;0.60;;;0.60;;
34196;SDS011;36594;45.192;5.722;2023-02-28T00:33:15;0.60;;;0.60;;
34196;SDS011;36594;45.192;5.722;2023-02-28T00:36:04;0.88;;;0.80;;
34196;SDS011;36594;45.192;5.722;2023-02-28T00:38:55;0.68;;;0.68;;
34196;SDS011;36594;45.192;5.722;2023-02-28T00:41:45;0.70;;;0.70;;
34196;SDS011;36594;45.192;5.722;2023-02-28T00:44:34;0.62;;;0.62;;
34196;SDS011;36594;45.192;5.722;2023-02-28T00:47:22;0.60;;;0.60;;
34196;SDS011;36594;45.192;5.722;2023-02-28T00:50:10;0.70;;;0.70;;
34196;SDS011;36594;45.192;5.722;2023-02-28T00:52:59;0.60;;;0.60;;
34196;SDS011;36594;45.192;5.722;2023-02-28T00:55:48;0.65;;;0.65;;
34196;SDS011;36594;45.192;5.722;2023-02-28T00:58:38;0.65;;;0.65;;
34196;SDS011;36594;45.192;5.722;2023-02-28T01:01:27;0.90;;;0.72;;
34196;SDS011;36594;45.192;5.722;2023-02-28T01:04:15;0.60;;;0.60;;
34196;SDS011;36594;45.192;5.722;2023-02-28T01:07:03;0.60;;;0.60;;
34196;SDS011;36594;45.192;5.722;2023-02-28T01:09:52;0.62;;;0.62;;
34196;SDS011;36594;45.192;5.722;2023-02-28T01:12:40;0.65;;;0.65;;
34196;SDS011;36594;45.192;5.722;2023-02-28T01:15:28;0.90;;;0.80;;
34196;SDS011;36594;45.192;5.722;2023-02-28T01:18:18;0.50;;;0.50;;
34196;SDS011;36594;45.192;5.722;2023-02-28T01:21:09;0.90;;;0.55;;
34196;SDS011;36594;45.192;5.722;2023-02-28T01:24:00;0.60;;;0.60;;
34196;SDS011;36594;45.192;5.722;2023-02-28T01:26:49;0.90;;;0.90;;
34196;SDS011;36594;45.192;5.722;2023-02-28T01:29:37;0.80;;;0.80;;
34196;SDS011;36594;45.192;5.722;2023-02-28T01:32:25;0.60;;;0.60;;
34196;SDS011;36594;45.192;5.722;2023-02-28T01:35:15;0.60;;;0.60;;
34196;SDS011;36594;45.192;5.722;2023-02-28T01:38:03;0.60;;;0.60;;
34196;SDS011;36594;45.192;5.722;2023-02-28T01:40:52;0.80;;;0.80;;
34196;SDS011;36594;45.192;5.722;2023-02-28T01:46:36;0.70;;;0.70;;
34196;SDS011;36594;45.192;5.722;2023-02-28T01:49:24;0.70;;;0.70;;
34196;SDS011;36594;45.192;5.722;2023-02-28T01:52:13;0.57;;;0.57;;
34196;SDS011;36594;45.192;5.722;2023-02-28T01:55:06;0.70;;;0.70;;
34196;SDS011;36594;45.192;5.722;2023-02-28T01:57:56;0.60;;;0.60;;
34196;SDS011;36594;45.192;5.722;2023-02-28T02:00:47;0.80;;;0.80;;
34196;SDS011;36594;45.192;5.722;2023-02-28T02:03:35;0.88;;;0.60;;
34196;SDS011;36594;45.192;5.722;2023-02-28T02:06:24;0.50;;;0.50;;
34196;SDS011;36594;45.192;5.722;2023-02-28T02:09:18;0.60;;;0.60;;
34196;SDS011;36594;45.192;5.722;2023-02-28T02:12:12;0.60;;;0.60;;
34196;SDS011;36594;45.192;5.722;2023-02-28T02:15:36;0.65;;;0.65;;
34196;SDS011;36594;45.192;5.722;2023-02-28T02:18:18;1.00;;;0.90;;
34196;SDS011;36594;45.192;5.722;2023-02-28T02:24:26;0.78;;;0.68;;
34196;SDS011;36594;45.192;5.722;2023-02-28T02:27:28;0.60;;;0.60;;
34196;SDS011;36594;45.192;5.722;2023-02-28T02:36:18;0.70;;;0.70;;
34196;SDS011;36594;45.192;5.722;2023-02-28T02:39:13;0.70;;;0.70;;
34196;SDS011;36594;45.192;5.722;2023-02-28T02:42:17;0.57;;;0.57;;
34196;SDS011;36594;45.192;5.722;2023-02-28T02:45:42;0.62;;;0.62;;
34196;SDS011;36594;45.192;5.722;2023-02-28T02:48:11;0.60;;;0.60;;
34196;SDS011;36594;45.192;5.722;2023-02-28T02:51:03;0.70;;;0.70;;
34196;SDS011;36594;45.192;5.722;2023-02-28T02:54:00;0.68;;;0.68;;
34196;SDS011;36594;45.192;5.722;2023-02-28T02:56:46;0.60;;;0.60;;
34196;SDS011;36594;45.192;5.722;2023-02-28T02:59:38;0.60;;;0.60;;
34196;SDS011;36594;45.192;5.722;2023-02-28T03:02:28;0.78;;;0.78;;
34196;SDS011;36594;45.192;5.722;2023-02-28T03:05:24;0.70;;;0.70;;
34196;SDS011;36594;45.192;5.722;2023-02-28T03:08:17;0.60;;;0.60;;
34196;SDS011;36594;45.192;5.722;2023-02-28T03:11:06;0.70;;;0.70;;
34196;SDS011;36594;45.192;5.722;2023-02-28T03:14:04;0.80;;;0.80;;
34196;SDS011;36594;45.192;5.722;2023-02-28T03:23:08;0.72;;;0.72;;
34196;SDS011;36594;45.192;5.722;2023-02-28T03:25:57;0.90;;;0.90;;
34196;SDS011;36594;45.192;5.722;2023-02-28T03:28:57;0.70;;;0.70;;
34196;SDS011;36594;45.192;5.722;2023-02-28T03:32:19;0.57;;;0.57;;
34196;SDS011;36594;45.192;5.722;2023-02-28T03:34:55;0.78;;;0.78;;
34196;SDS011;36594;45.192;5.722;2023-02-28T03:37:55;0.80;;;0.80;;
34196;SDS011;36594;45.192;5.722;2023-02-28T03:40:51;0.67;;;0.67;;
34196;SDS011;36594;45.192;5.722;2023-02-28T03:43:41;0.60;;;0.60;;
34196;SDS011;36594;45.192;5.722;2023-02-28T03:46:32;0.70;;;0.63;;
34196;SDS011;36594;45.192;5.722;2023-02-28T03:49:31;0.50;;;0.50;;
34196;SDS011;36594;45.192;5.722;2023-02-28T03:52:42;0.60;;;0.60;;
34196;SDS011;36594;45.192;5.722;2023-02-28T03:55:37;0.80;;;0.80;;
34196;SDS011;36594;45.192;5.722;2023-02-28T03:58:30;0.60;;;0.60;;
34196;SDS011;36594;45.192;5.722;2023-02-28T04:01:21;0.75;;;0.75;;
34196;SDS011;36594;45.192;5.722;2023-02-28T04:04:14;1.15;;;1.15;;
34196;SDS011;36594;45.192;5.722;2023-02-28T04:07:05;0.90;;;0.90;;
34196;SDS011;36594;45.192;5.722;2023-02-28T04:09:55;1.30;;;1.20;;
34196;SDS011;36594;45.192;5.722;2023-02-28T04:12:43;0.98;;;0.98;;
34196;SDS011;36594;45.192;5.722;2023-02-28T04:15:31;0.90;;;0.90;;
34196;SDS011;36594;45.192;5.722;2023-02-28T04:18:20;1.00;;;1.00;;
34196;SDS011;36594;45.192;5.722;2023-02-28T04:21:09;1.00;;;1.00;;
34196;SDS011;36594;45.192;5.722;2023-02-28T04:23:59;1.07;;;1.07;;
34196;SDS011;36594;45.192;5.722;2023-02-28T04:26:48;1.07;;;1.07;;
34196;SDS011;36594;45.192;5.722;2023-02-28T04:29:38;1.10;;;1.10;;
34196;SDS011;36594;45.192;5.722;2023-02-28T04:32:28;1.07;;;1.07;;
34196;SDS011;36594;45.192;5.722;2023-02-28T04:35:16;1.00;;;1.00;;
34196;SDS011;36594;45.192;5.722;2023-02-28T04:38:05;1.17;;;1.17;;
34196;SDS011;36594;45.192;5.722;2023-02-28T04:40:53;1.10;;;1.00;;
34196;SDS011;36594;45.192;5.722;2023-02-28T04:43:43;1.10;;;1.10;;
34196;SDS011;36594;45.192;5.722;2023-02-28T04:46:31;1.00;;;1.00;;
34196;SDS011;36594;45.192;5.722;2023-02-28T04:49:20;1.13;;;1.10;;
34196;SDS011;36594;45.192;5.722;2023-02-28T04:52:08;1.20;;;1.20;;
34196;SDS011;36594;45.192;5.722;2023-02-28T04:54:56;1.10;;;1.10;;
34196;SDS011;36594;45.192;5.722;2023-02-28T04:57:45;1.17;;;1.17;;
34196;SDS011;36594;45.192;5.722;2023-02-28T05:00:33;1.10;;;1.10;;
34196;SDS011;36594;45.192;5.722;2023-02-28T05:03:22;1.00;;;1.00;;
34196;SDS011;36594;45.192;5.722;2023-02-28T05:06:10;1.17;;;1.17;;
34196;SDS011;36594;45.192;5.722;2023-02-28T05:09:00;0.90;;;0.90;;
34196;SDS011;36594;45.192;5.722;2023-02-28T05:11:49;0.90;;;0.90;;
34196;SDS011;36594;45.192;5.722;2023-02-28T05:14:37;0.70;;;0.70;;
34196;SDS011;36594;45.192;5.722;2023-02-28T05:17:25;0.80;;;0.80;;
34196;SDS011;36594;45.192;5.722;2023-02-28T05:20:14;0.88;;;0.88;;
34196;SDS011;36594;45.192;5.722;2023-02-28T05:23:02;0.75;;;0.75;;
34196;SDS011;36594;45.192;5.722;2023-02-28T05:25:51;0.80;;;0.80;;
34196;SDS011;36594;45.192;5.722;2023-02-28T05:28:39;0.90;;;0.90;;
34196;SDS011;36594;45.192;5.722;2023-02-28T05:31:27;0.80;;;0.80;;
34196;SDS011;36594;45.192;5.722;2023-02-28T05:34:15;0.90;;;0.90;;
34196;SDS011;36594;45.192;5.722;2023-02-28T05:37:04;0.90;;;0.90;;
34196;SDS011;36594;45.192;5.722;2023-02-28T05:39:54;0.70;;;0.70;;
34196;SDS011;36594;45.192;5.722;2023-02-28T05:42:43;0.80;;;0.80;;
34196;SDS011;36594;45.192;5.722;2023-02-28T05:45:31;0.85;;;0.85;;
34196;SDS011;36594;45.192;5.722;2023-02-28T05:48:20;0.80;;;0.80;;
34196;SDS011;36594;45.192;5.722;2023-02-28T05:51:08;0.70;;;0.70;;
34196;SDS011;36594;45.192;5.722;2023-02-28T05:54:00;0.85;;;0.85;;
34196;SDS011;36594;45.192;5.722;2023-02-28T05:56:49;0.80;;;0.80;;
34196;SDS011;36594;45.192;5.722;2023-02-28T05:59:37;0.80;;;0.80;;
34196;SDS011;36594;45.192;5.722;2023-02-28T06:02:26;0.80;;;0.80;;
34196;SDS011;36594;45.192;5.722;2023-02-28T06:05:15;0.80;;;0.80;;
34196;SDS011;36594;45.192;5.722;2023-02-28T06:08:05;0.80;;;0.80;;
34196;SDS011;36594;45.192;5.722;2023-02-28T06:10:53;0.93;;;0.80;;
34196;SDS011;36594;45.192;5.722;2023-02-28T06:13:42;0.85;;;0.85;;
34196;SDS011;36594;45.192;5.722;2023-02-28T06:16:31;0.70;;;0.70;;
34196;SDS011;36594;45.192;5.722;2023-02-28T06:19:21;0.82;;;0.80;;
34196;SDS011;36594;45.192;5.722;2023-02-28T06:22:11;0.70;;;0.70;;
34196;SDS011;36594;45.192;5.722;2023-02-28T06:25:00;0.60;;;0.60;;
34196;SDS011;36594;45.192;5.722;2023-02-28T06:27:48;0.90;;;0.90;;
34196;SDS011;36594;45.192;5.722;2023-02-28T06:30:37;0.80;;;0.80;;
34196;SDS011;36594;45.192;5.722;2023-02-28T06:33:25;0.90;;;0.90;;
34196;SDS011;36594;45.192;5.722;2023-02-28T06:36:14;0.80;;;0.80;;
34196;SDS011;36594;45.192;5.722;2023-02-28T06:39:03;0.80;;;0.80;;
34196;SDS011;36594;45.192;5.722;2023-02-28T06:41:52;0.80;;;0.80;;
34196;SDS011;36594;45.192;5.722;2023-02-28T06:44:41;0.60;;;0.60;;
34196;SDS011;36594;45.192;5.722;2023-02-28T06:47:30;0.70;;;0.70;;
34196;SDS011;36594;45.192;5.722;2023-02-28T06:50:19;0.90;;;0.90;;
34196;SDS011;36594;45.192;5.722;2023-02-28T06:53:08;0.90;;;0.90;;
34196;SDS011;36594;45.192;5.722;2023-02-28T06:55:56;0.80;;;0.80;;
34196;SDS011;36594;45.192;5.722;2023-02-28T06:58:48;0.80;;;0.80;;
34196;SDS011;36594;45.192;5.722;2023-02-28T07:01:39;0.90;;;0.90;;
34196;SDS011;36594;45.192;5.722;2023-02-28T07:04:28;0.80;;;0.80;;
34196;SDS011;36594;45.192;5.722;2023-02-28T07:07:16;0.77;;;0.77;;
34196;SDS011;36594;45.192;5.722;2023-02-28T07:10:05;0.90;;;0.90;;
34196;SDS011;36594;45.192;5.722;2023-02-28T07:12:54;0.80;;;0.80;;
34196;SDS011;36594;45.192;5.722;2023-02-28T07:15:43;0.80;;;0.80;;
34196;SDS011;36594;45.192;5.722;2023-02-28T07:18:31;0.80;;;0.80;;
34196;SDS011;36594;45.192;5.722;2023-02-28T07:21:20;0.75;;;0.75;;
34196;SDS011;36594;45.192;5.722;2023-02-28T07:24:09;0.80;;;0.80;;
34196;SDS011;36594;45.192;5.722;2023-02-28T07:26:58;0.63;;;0.63;;
34196;SDS011;36594;45.192;5.722;2023-02-28T07:29:47;1.00;;;1.00;;
34196;SDS011;36594;45.192;5.722;2023-02-28T07:32:35;0.90;;;0.90;;
34196;SDS011;36594;45.192;5.722;2023-02-28T07:35:24;0.70;;;0.70;;
34196;SDS011;36594;45.192;5.722;2023-02-28T07:38:12;0.80;;;0.80;;
34196;SDS011;36594;45.192;5.722;2023-02-28T07:41:00;0.90;;;0.90;;
34196;SDS011;36594;45.192;5.722;2023-02-28T07:43:53;0.88;;;0.88;;
34196;SDS011;36594;45.192;5.722;2023-02-28T07:46:43;0.90;;;0.80;;
34196;SDS011;36594;45.192;5.722;2023-02-28T07:49:31;0.80;;;0.80;;
34196;SDS011;36594;45.192;5.722;2023-02-28T07:52:20;0.95;;;0.95;;
34196;SDS011;36594;45.192;5.722;2023-02-28T07:55:10;0.80;;;0.70;;
34196;SDS011;36594;45.192;5.722;2023-02-28T07:58:00;0.80;;;0.80;;
34196;SDS011;36594;45.192;5.722;2023-02-28T08:00:48;1.00;;;0.80;;
34196;SDS011;36594;45.192;5.722;2023-02-28T08:03:37;0.60;;;0.60;;
34196;SDS011;36594;45.192;5.722;2023-02-28T08:06:27;0.95;;;0.95;;
34196;SDS011;36594;45.192;5.722;2023-02-28T08:09:15;0.90;;;0.90;;
34196;SDS011;36594;45.192;5.722;2023-02-28T08:12:04;0.90;;;0.90;;
34196;SDS011;36594;45.192;5.722;2023-02-28T08:14:53;0.90;;;0.90;;
34196;SDS011;36594;45.192;5.722;2023-02-28T08:17:41;0.70;;;0.70;;
34196;SDS011;36594;45.192;5.722;2023-02-28T08:20:30;0.70;;;0.70;;
34196;SDS011;36594;45.192;5.722;2023-02-28T08:23:18;0.82;;;0.82;;
34196;SDS011;36594;45.192;5.722;2023-02-28T08:26:07;0.82;;;0.82;;
34196;SDS011;36594;45.192;5.722;2023-02-28T08:28:56;0.90;;;0.90;;
34196;SDS011;36594;45.192;5.722;2023-02-28T08:31:44;0.90;;;0.90;;
34196;SDS011;36594;45.192;5.722;2023-02-28T08:34:33;0.80;;;0.70;;
34196;SDS011;36594;45.192;5.722;2023-02-28T08:37:21;0.90;;;0.90;;
34196;SDS011;36594;45.192;5.722;2023-02-28T08:40:10;0.93;;;0.93;;
34196;SDS011;36594;45.192;5.722;2023-02-28T08:43:00;0.80;;;0.80;;
34196;SDS011;36594;45.192;5.722;2023-02-28T08:45:50;0.72;;;0.72;;
34196;SDS011;36594;45.192;5.722;2023-02-28T08:48:39;0.93;;;0.93;;
34196;SDS011;36594;45.192;5.722;2023-02-28T08:51:28;0.90;;;0.90;;
34196;SDS011;36594;45.192;5.722;2023-02-28T08:54:17;1.60;;;1.00;;
34196;SDS011;36594;45.192;5.722;2023-02-28T08:57:06;0.90;;;0.80;;
34196;SDS011;36594;45.192;5.722;2023-02-28T08:59:54;1.00;;;0.90;;
34196;SDS011;36594;45.192;5.722;2023-02-28T09:02:43;1.35;;;1.00;;
34196;SDS011;36594;45.192;5.722;2023-02-28T09:05:32;0.82;;;0.82;;
34196;SDS011;36594;45.192;5.722;2023-02-28T09:08:20;0.77;;;0.77;;
34196;SDS011;36594;45.192;5.722;2023-02-28T09:11:09;0.68;;;0.68;;
34196;SDS011;36594;45.192;5.722;2023-02-28T09:13:58;0.70;;;0.70;;
34196;SDS011;36594;45.192;5.722;2023-02-28T09:16:48;0.80;;;0.80;;
34196;SDS011;36594;45.192;5.722;2023-02-28T09:19:37;0.93;;;0.93;;
34196;SDS011;36594;45.192;5.722;2023-02-28T09:22:25;0.90;;;0.90;;
34196;SDS011;36594;45.192;5.722;2023-02-28T09:25:13;0.80;;;0.80;;
34196;SDS011;36594;45.192;5.722;2023-02-28T09:28:01;0.80;;;0.80;;
34196;SDS011;36594;45.192;5.722;2023-02-28T09:30:52;0.78;;;0.78;;
34196;SDS011;36594;45.192;5.722;2023-02-28T09:33:42;0.90;;;0.90;;
34196;SDS011;36594;45.192;5.722;2023-02-28T09:36:30;0.90;;;0.90;;
34196;SDS011;36594;45.192;5.722;2023-02-28T09:39:26;0.70;;;0.70;;
34196;SDS011;36594;45.192;5.722;2023-02-28T09:42:18;0.73;;;0.73;;
34196;SDS011;36594;45.192;5.722;2023-02-28T09:45:13;0.85;;;0.85;;
34196;SDS011;36594;45.192;5.722;2023-02-28T09:48:16;0.95;;;0.95;;
34196;SDS011;36594;45.192;5.722;2023-02-28T09:51:03;0.90;;;0.90;;
34196;SDS011;36594;45.192;5.722;2023-02-28T09:54:05;0.80;;;0.80;;
34196;SDS011;36594;45.192;5.722;2023-02-28T10:08:58;0.80;;;0.80;;
34196;SDS011;36594;45.192;5.722;2023-02-28T10:11:48;0.90;;;0.90;;
34196;SDS011;36594;45.192;5.722;2023-02-28T10:14:39;0.75;;;0.75;;
34196;SDS011;36594;45.192;5.722;2023-02-28T10:17:36;1.20;;;0.80;;
34196;SDS011;36594;45.192;5.722;2023-02-28T10:20:22;0.82;;;0.82;;
34196;SDS011;36594;45.192;5.722;2023-02-28T10:23:21;0.90;;;0.90;;
34196;SDS011;36594;45.192;5.722;2023-02-28T10:26:17;0.72;;;0.72;;
34196;SDS011;36594;45.192;5.722;2023-02-28T10:29:07;0.80;;;0.80;;
34196;SDS011;36594;45.192;5.722;2023-02-28T10:31:57;0.60;;;0.60;;
34196;SDS011;36594;45.192;5.722;2023-02-28T10:34:52;0.90;;;0.90;;
34196;SDS011;36594;45.192;5.722;2023-02-28T10:37:42;0.65;;;0.65;;
34196;SDS011;36594;45.192;5.722;2023-02-28T10:40:35;0.85;;;0.85;;
34196;SDS011;36594;45.192;5.722;2023-02-28T10:43:24;0.90;;;0.90;;
34196;SDS011;36594;45.192;5.722;2023-02-28T10:46:16;0.70;;;0.70;;
34196;SDS011;36594;45.192;5.722;2023-02-28T10:49:22;0.80;;;0.80;;
34196;SDS011;36594;45.192;5.722;2023-02-28T10:52:10;0.80;;;0.80;;
34196;SDS011;36594;45.192;5.722;2023-02-28T10:55:13;0.60;;;0.60;;
34196;SDS011;36594;45.192;5.722;2023-02-28T10:57:49;0.80;;;0.80;;
34196;SDS011;36594;45.192;5.722;2023-02-28T11:00:38;0.80;;;0.72;;
34196;SDS011;36594;45.192;5.722;2023-02-28T11:03:34;0.80;;;0.80;;
34196;SDS011;36594;45.192;5.722;2023-02-28T11:06:24;1.07;;;0.80;;
34196;SDS011;36594;45.192;5.722;2023-02-28T11:09:25;0.90;;;0.90;;
34196;SDS011;36594;45.192;5.722;2023-02-28T11:12:36;0.68;;;0.68;;
34196;SDS011;36594;45.192;5.722;2023-02-28T11:15:31;0.80;;;0.80;;
34196;SDS011;36594;45.192;5.722;2023-02-28T11:21:33;0.80;;;0.80;;
34196;SDS011;36594;45.192;5.722;2023-02-28T11:27:56;0.80;;;0.80;;
34196;SDS011;36594;45.192;5.722;2023-02-28T11:33:28;0.90;;;0.90;;
34196;SDS011;36594;45.192;5.722;2023-02-28T11:36:22;0.90;;;0.90;;
34196;SDS011;36594;45.192;5.722;2023-02-28T11:39:13;0.90;;;0.90;;
34196;SDS011;36594;45.192;5.722;2023-02-28T11:42:22;0.90;;;0.90;;
34196;SDS011;36594;45.192;5.722;2023-02-28T11:48:24;0.80;;;0.80;;
34196;SDS011;36594;45.192;5.722;2023-02-28T12:00:36;0.80;;;0.80;;
34196;SDS011;36594;45.192;5.722;2023-02-28T12:09:35;0.70;;;0.70;;
34196;SDS011;36594;45.192;5.722;2023-02-28T12:15:36;1.50;;;0.80;;
34196;SDS011;36594;45.192;5.722;2023-02-28T12:18:53;0.90;;;0.90;;
34196;SDS011;36594;45.192;5.722;2023-02-28T12:28:09;0.90;;;0.90;;
34196;SDS011;36594;45.192;5.722;2023-02-28T12:31:09;1.13;;;1.10;;
34196;SDS011;36594;45.192;5.722;2023-02-28T12:34:03;1.10;;;1.10;;
34196;SDS011;36594;45.192;5.722;2023-02-28T12:36:52;0.95;;;0.95;;
34196;SDS011;36594;45.192;5.722;2023-02-28T12:39:46;1.65;;;1.20;;
34196;SDS011;36594;45.192;5.722;2023-02-28T12:42:45;1.40;;;1.30;;
34196;SDS011;36594;45.192;5.722;2023-02-28T12:48:47;2.25;;;1.55;;
34196;SDS011;36594;45.192;5.722;2023-02-28T12:51:37;1.40;;;1.30;;
34196;SDS011;36594;45.192;5.722;2023-02-28T12:54:32;1.57;;;1.42;;
34196;SDS011;36594;45.192;5.722;2023-02-28T12:57:40;1.40;;;1.30;;
34196;SDS011;36594;45.192;5.722;2023-02-28T13:00:36;2.40;;;1.70;;
34196;SDS011;36594;45.192;5.722;2023-02-28T13:07:04;1.50;;;1.40;;
34196;SDS011;36594;45.192;5.722;2023-02-28T13:10:07;1.70;;;1.42;;
34196;SDS011;36594;45.192;5.722;2023-02-28T13:12:57;2.50;;;1.27;;
34196;SDS011;36594;45.192;5.722;2023-02-28T13:15:58;2.10;;;1.50;;
34196;SDS011;36594;45.192;5.722;2023-02-28T13:18:49;1.37;;;1.30;;
34196;SDS011;36594;45.192;5.722;2023-02-28T13:21:44;1.32;;;1.22;;
34196;SDS011;36594;45.192;5.722;2023-02-28T13:27:42;1.85;;;1.50;;
34196;SDS011;36594;45.192;5.722;2023-02-28T13:36:39;1.65;;;1.55;;
34196;SDS011;36594;45.192;5.722;2023-02-28T13:45:28;1.67;;;1.50;;
34196;SDS011;36594;45.192;5.722;2023-02-28T13:48:17;2.12;;;1.30;;
34196;SDS011;36594;45.192;5.722;2023-02-28T14:00:37;2.00;;;1.60;;
34196;SDS011;36594;45.192;5.722;2023-02-28T14:03:30;1.73;;;1.63;;
34196;SDS011;36594;45.192;5.722;2023-02-28T14:09:24;1.43;;;1.40;;
34196;SDS011;36594;45.192;5.722;2023-02-28T14:13:00;1.30;;;1.20;;
34196;SDS011;36594;45.192;5.722;2023-02-28T14:15:27;2.52;;;1.35;;
34196;SDS011;36594;45.192;5.722;2023-02-28T14:18:33;2.00;;;1.40;;
34196;SDS011;36594;45.192;5.722;2023-02-28T14:21:24;1.57;;;1.37;;
34196;SDS011;36594;45.192;5.722;2023-02-28T14:24:33;1.52;;;1.42;;
34196;SDS011;36594;45.192;5.722;2023-02-28T14:27:21;1.70;;;1.27;;
34196;SDS011;36594;45.192;5.722;2023-02-28T14:30:20;1.57;;;1.47;;
34196;SDS011;36594;45.192;5.722;2023-02-28T14:33:20;1.52;;;1.42;;
34196;SDS011;36594;45.192;5.722;2023-02-28T14:39:14;1.32;;;1.20;;
34196;SDS011;36594;45.192;5.722;2023-02-28T14:42:24;1.57;;;1.47;;
34196;SDS011;36594;45.192;5.722;2023-02-28T14:44:58;1.75;;;1.47;;
34196;SDS011;36594;45.192;5.722;2023-02-28T14:47:47;1.57;;;1.40;;
34196;SDS011;36594;45.192;5.722;2023-02-28T14:50:38;2.25;;;1.52;;
34196;SDS011;36594;45.192;5.722;2023-02-28T14:53:34;1.60;;;1.43;;
34196;SDS011;36594;45.192;5.722;2023-02-28T14:56:22;2.00;;;1.60;;
34196;SDS011;36594;45.192;5.722;2023-02-28T14:59:29;1.50;;;1.30;;
34196;SDS011;36594;45.192;5.722;2023-02-28T15:02:21;1.45;;;1.35;;
34196;SDS011;36594;45.192;5.722;2023-02-28T15:11:14;1.57;;;1.47;;
34196;SDS011;36594;45.192;5.722;2023-02-28T15:14:15;1.27;;;1.20;;
34196;SDS011;36594;45.192;5.722;2023-02-28T15:17:08;2.80;;;1.42;;
34196;SDS011;36594;45.192;5.722;2023-02-28T15:19:59;1.57;;;1.47;;
34196;SDS011;36594;45.192;5.722;2023-02-28T15:22:49;1.17;;;1.17;;
34196;SDS011;36594;45.192;5.722;2023-02-28T15:25:40;1.50;;;1.40;;
34196;SDS011;36594;45.192;5.722;2023-02-28T15:28:28;1.75;;;1.55;;
34196;SDS011;36594;45.192;5.722;2023-02-28T15:34:45;1.40;;;1.30;;
34196;SDS011;36594;45.192;5.722;2023-02-28T15:40:23;1.90;;;1.32;;
34196;SDS011;36594;45.192;5.722;2023-02-28T15:43:24;1.82;;;1.50;;
34196;SDS011;36594;45.192;5.722;2023-02-28T15:46:14;1.10;;;1.10;;
34196;SDS011;36594;45.192;5.722;2023-02-28T15:49:03;1.83;;;1.63;;
34196;SDS011;36594;45.192;5.722;2023-02-28T15:51:53;2.80;;;1.30;;
34196;SDS011;36594;45.192;5.722;2023-02-28T15:54:43;1.45;;;1.35;;
34196;SDS011;36594;45.192;5.722;2023-02-28T15:57:33;1.30;;;1.30;;
34196;SDS011;36594;45.192;5.722;2023-02-28T16:00:24;1.50;;;1.40;;
34196;SDS011;36594;45.192;5.722;2023-02-28T16:03:26;1.65;;;1.55;;
34196;SDS011;36594;45.192;5.722;2023-02-28T16:06:24;1.40;;;1.30;;
34196;SDS011;36594;45.192;5.722;2023-02-28T16:09:14;1.50;;;1.40;;
34196;SDS011;36594;45.192;5.722;2023-02-28T16:12:03;1.32;;;1.27;;
34196;SDS011;36594;45.192;5.722;2023-02-28T16:14:52;1.42;;;1.40;;
34196;SDS011;36594;45.192;5.722;2023-02-28T16:17:43;1.50;;;1.40;;
34196;SDS011;36594;45.192;5.722;2023-02-28T16:20:33;2.10;;;1.17;;
34196;SDS011;36594;45.192;5.722;2023-02-28T16:23:21;1.50;;;1.40;;
34196;SDS011;36594;45.192;5.722;2023-02-28T16:26:14;1.40;;;1.30;;
34196;SDS011;36594;45.192;5.722;2023-02-28T16:29:22;1.12;;;1.12;;
34196;SDS011;36594;45.192;5.722;2023-02-28T16:32:05;1.15;;;1.10;;
34196;SDS011;36594;45.192;5.722;2023-02-28T16:34:54;1.62;;;1.30;;
34196;SDS011;36594;45.192;5.722;2023-02-28T16:37:42;1.03;;;1.03;;
34196;SDS011;36594;45.192;5.722;2023-02-28T16:40:33;1.80;;;1.25;;
34196;SDS011;36594;45.192;5.722;2023-02-28T16:43:23;1.20;;;1.20;;
34196;SDS011;36594;45.192;5.722;2023-02-28T16:46:14;1.60;;;1.50;;
34196;SDS011;36594;45.192;5.722;2023-02-28T16:49:03;2.20;;;1.30;;
34196;SDS011;36594;45.192;5.722;2023-02-28T16:51:51;1.17;;;1.17;;
34196;SDS011;36594;45.192;5.722;2023-02-28T16:54:40;1.20;;;1.10;;
34196;SDS011;36594;45.192;5.722;2023-02-28T16:57:29;1.40;;;1.30;;
34196;SDS011;36594;45.192;5.722;2023-02-28T17:00:18;1.20;;;1.20;;
34196;SDS011;36594;45.192;5.722;2023-02-28T17:03:19;1.83;;;1.30;;
34196;SDS011;36594;45.192;5.722;2023-02-28T17:06:04;1.25;;;1.25;;
34196;SDS011;36594;45.192;5.722;2023-02-28T17:08:54;1.17;;;1.17;;
34196;SDS011;36594;45.192;5.722;2023-02-28T17:11:44;1.30;;;1.20;;
34196;SDS011;36594;45.192;5.722;2023-02-28T17:14:33;1.10;;;1.10;;
34196;SDS011;36594;45.192;5.722;2023-02-28T17:17:21;1.63;;;1.27;;
34196;SDS011;36594;45.192;5.722;2023-02-28T17:20:15;1.72;;;1.32;;
34196;SDS011;36594;45.192;5.722;2023-02-28T17:23:04;1.10;;;1.10;;
34196;SDS011;36594;45.192;5.722;2023-02-28T17:25:54;1.17;;;1.17;;
34196;SDS011;36594;45.192;5.722;2023-02-28T17:28:42;1.40;;;1.30;;
34196;SDS011;36594;45.192;5.722;2023-02-28T17:31:31;1.15;;;1.12;;
34196;SDS011;36594;45.192;5.722;2023-02-28T17:34:21;1.20;;;1.20;;
34196;SDS011;36594;45.192;5.722;2023-02-28T17:37:09;1.37;;;1.27;;
34196;SDS011;36594;45.192;5.722;2023-02-28T17:39:58;1.35;;;1.20;;
34196;SDS011;36594;45.192;5.722;2023-02-28T17:42:46;1.22;;;1.22;;
34196;SDS011;36594;45.192;5.722;2023-02-28T17:45:35;1.10;;;1.10;;
34196;SDS011;36594;45.192;5.722;2023-02-28T17:48:24;2.10;;;1.20;;
34196;SDS011;36594;45.192;5.722;2023-02-28T17:51:13;1.40;;;1.40;;
34196;SDS011;36594;45.192;5.722;2023-02-28T17:54:02;1.40;;;1.30;;
34196;SDS011;36594;45.192;5.722;2023-02-28T17:56:52;1.40;;;1.30;;
34196;SDS011;36594;45.192;5.722;2023-02-28T17:59:40;1.42;;;1.35;;
34196;SDS011;36594;45.192;5.722;2023-02-28T18:02:28;1.50;;;1.40;;
34196;SDS011;36594;45.192;5.722;2023-02-28T18:05:17;1.60;;;1.50;;
34196;SDS011;36594;45.192;5.722;2023-02-28T18:08:05;1.52;;;1.42;;
34196;SDS011;36594;45.192;5.722;2023-02-28T18:10:55;1.47;;;1.37;;
34196;SDS011;36594;45.192;5.722;2023-02-28T18:13:44;1.60;;;1.50;;
34196;SDS011;36594;45.192;5.722;2023-02-28T18:16:34;1.50;;;1.40;;
34196;SDS011;36594;45.192;5.722;2023-02-28T18:19:22;1.53;;;1.43;;
34196;SDS011;36594;45.192;5.722;2023-02-28T18:22:11;1.45;;;1.45;;
34196;SDS011;36594;45.192;5.722;2023-02-28T18:24:59;1.70;;;1.60;;
34196;SDS011;36594;45.192;5.722;2023-02-28T18:27:47;1.52;;;1.42;;
34196;SDS011;36594;45.192;5.722;2023-02-28T18:30:45;1.57;;;1.47;;
34196;SDS011;36594;45.192;5.722;2023-02-28T18:33:34;1.52;;;1.42;;
34196;SDS011;36594;45.192;5.722;2023-02-28T18:36:22;1.42;;;1.40;;
34196;SDS011;36594;45.192;5.722;2023-02-28T18:39:13;1.50;;;1.40;;
34196;SDS011;36594;45.192;5.722;2023-02-28T18:42:02;1.77;;;1.67;;
34196;SDS011;36594;45.192;5.722;2023-02-28T18:44:51;1.52;;;1.42;;
34196;SDS011;36594;45.192;5.722;2023-02-28T18:47:39;1.60;;;1.50;;
34196;SDS011;36594;45.192;5.722;2023-02-28T18:50:28;1.65;;;1.55;;
34196;SDS011;36594;45.192;5.722;2023-02-28T18:53:16;1.57;;;1.47;;
34196;SDS011;36594;45.192;5.722;2023-02-28T18:56:06;1.60;;;1.50;;
34196;SDS011;36594;45.192;5.722;2023-02-28T18:58:58;1.37;;;1.30;;
34196;SDS011;36594;45.192;5.722;2023-02-28T19:01:46;1.62;;;1.47;;
34196;SDS011;36594;45.192;5.722;2023-02-28T19:04:34;1.40;;;1.30;;
34196;SDS011;36594;45.192;5.722;2023-02-28T19:07:23;1.70;;;1.60;;
34196;SDS011;36594;45.192;5.722;2023-02-28T19:10:11;1.50;;;1.40;;